createdAt,value
2017-10-19T00:00:10.815Z,58.67
2017-10-19T00:02:39.072Z,64.87
2017-10-19T00:05:06.563Z,72.83
2017-10-19T00:07:34.112Z,133.17
2017-10-19T00:10:02.379Z,51.10
2017-10-19T00:12:30.666Z,54.73
2017-10-19T00:14:58.928Z,93.97
2017-10-19T00:17:27.193Z,87.57
2017-10-19T00:19:54.982Z,58.40
2017-10-19T00:22:23.257Z,54.90
2017-10-19T00:24:51.524Z,60.37
2017-10-19T00:27:19.774Z,52.50
2017-10-19T00:29:47.377Z,68.50
2017-10-19T00:32:14.938Z,69.23
2017-10-19T00:34:42.496Z,206.87
2017-10-19T00:37:11.696Z,93.83
2017-10-19T00:39:39.960Z,62.97
2017-10-19T00:42:09.064Z,65.17
2017-10-19T00:44:37.334Z,74.50
2017-10-19T00:47:05.611Z,52.03
2017-10-19T00:49:33.866Z,136.50
2017-10-19T00:52:01.439Z,70.27
2017-10-19T00:54:29.687Z,74.43
2017-10-19T00:56:57.174Z,65.57
2017-10-19T00:59:25.437Z,60.50
2017-10-19T01:01:53.020Z,45.63
2017-10-19T01:04:20.576Z,52.67
2017-10-19T01:06:48.066Z,90.40
2017-10-19T01:09:15.561Z,46.80
2017-10-19T01:11:43.052Z,71.63
2017-10-19T01:14:12.352Z,102.97
2017-10-19T01:16:40.604Z,119.30
2017-10-19T01:19:08.089Z,78.43
2017-10-19T01:21:36.401Z,99.40
2017-10-19T01:24:03.896Z,46.60
2017-10-19T01:26:31.380Z,43.83
2017-10-19T01:28:59.644Z,125.00
2017-10-19T01:31:27.131Z,111.17
2017-10-19T01:33:54.615Z,44.80
2017-10-19T01:36:22.108Z,53.80
2017-10-19T01:38:49.713Z,46.90
2017-10-19T01:41:17.195Z,47.07
2017-10-19T01:43:44.739Z,67.37
2017-10-19T01:46:13.463Z,68.77
2017-10-19T01:48:40.944Z,52.13
2017-10-19T01:51:08.431Z,50.27
2017-10-19T01:53:35.914Z,50.73
2017-10-19T01:56:03.461Z,106.27
2017-10-19T01:58:30.955Z,43.83
2017-10-19T02:00:58.549Z,52.43
2017-10-19T02:03:26.803Z,106.17
2017-10-19T02:05:55.062Z,55.57
2017-10-19T02:08:22.548Z,63.83
2017-10-19T02:10:50.027Z,94.20
2017-10-19T02:13:18.282Z,40.13
2017-10-19T02:15:45.776Z,52.13
2017-10-19T02:18:13.263Z,82.83
2017-10-19T02:20:40.756Z,67.40
2017-10-19T02:23:09.012Z,47.70
2017-10-19T02:25:36.508Z,41.30
2017-10-19T02:28:04.781Z,40.13
2017-10-19T02:30:33.032Z,65.83
2017-10-19T02:33:00.519Z,66.00
2017-10-19T02:35:28.779Z,77.70
2017-10-19T02:37:56.348Z,94.17
2017-10-19T02:40:24.603Z,122.35
2017-10-19T02:42:52.526Z,64.30
2017-10-19T02:45:20.012Z,66.53
2017-10-19T02:47:47.504Z,70.87
2017-10-19T02:50:15.767Z,68.23
2017-10-19T02:52:44.060Z,43.60
2017-10-19T02:55:13.252Z,43.87
2017-10-19T02:57:40.747Z,58.20
2017-10-19T03:00:08.233Z,52.30
2017-10-19T03:02:35.720Z,62.83
2017-10-19T03:05:03.216Z,49.50
2017-10-19T03:07:30.713Z,38.33
2017-10-19T03:09:58.362Z,44.03
2017-10-19T03:12:25.857Z,64.57
2017-10-19T03:14:53.346Z,80.70
2017-10-19T03:17:21.596Z,49.93
2017-10-19T03:19:49.092Z,37.30
2017-10-19T03:22:16.582Z,75.30
2017-10-19T03:24:44.070Z,37.47
2017-10-19T03:27:11.569Z,63.23
2017-10-19T03:29:39.104Z,44.20
2017-10-19T03:32:07.352Z,79.13
2017-10-19T03:34:34.859Z,46.77
2017-10-19T03:37:02.459Z,59.90
2017-10-19T03:39:29.944Z,78.53
2017-10-19T03:41:58.215Z,54.77
2017-10-19T03:44:25.823Z,65.10
2017-10-19T03:46:53.304Z,77.57
2017-10-19T03:49:20.799Z,61.90
2017-10-19T03:51:49.047Z,49.47
2017-10-19T03:54:16.527Z,55.33
2017-10-19T03:56:44.814Z,50.83
2017-10-19T03:59:14.015Z,46.80
2017-10-19T04:01:42.270Z,74.87
2017-10-19T04:04:09.759Z,66.37
2017-10-19T04:06:38.009Z,47.57
2017-10-19T04:09:05.507Z,46.70
2017-10-19T04:11:33.002Z,53.03
2017-10-19T04:14:00.495Z,61.53
2017-10-19T04:16:28.778Z,45.60
2017-10-19T04:18:57.059Z,42.80
2017-10-19T04:21:25.308Z,64.07
2017-10-19T04:23:52.793Z,42.70
2017-10-19T04:26:21.060Z,61.43
2017-10-19T04:28:49.344Z,60.73
2017-10-19T04:31:17.591Z,54.80
2017-10-19T04:33:45.080Z,57.83
2017-10-19T04:36:14.245Z,50.57
2017-10-19T04:38:41.728Z,55.20
2017-10-19T04:41:10.279Z,48.20
2017-10-19T04:43:37.772Z,59.70
2017-10-19T04:46:06.047Z,50.97
2017-10-19T04:48:34.308Z,64.67
2017-10-19T04:51:01.788Z,61.97
2017-10-19T04:53:30.031Z,39.67
2017-10-19T04:55:57.523Z,55.63
2017-10-19T04:58:25.768Z,43.80
2017-10-19T05:00:53.253Z,40.10
2017-10-19T05:03:21.515Z,43.53
2017-10-19T05:05:48.991Z,81.83
2017-10-19T05:08:17.249Z,41.23
2017-10-19T05:10:45.535Z,68.67
2017-10-19T05:13:14.739Z,31.07
2017-10-19T05:15:42.989Z,49.77
2017-10-19T05:18:11.396Z,45.77
2017-10-19T05:20:39.670Z,41.47
2017-10-19T05:23:07.962Z,44.73
2017-10-19T05:25:35.504Z,27.60
2017-10-19T05:28:03.811Z,25.73
2017-10-19T05:30:32.160Z,38.70
2017-10-19T05:33:00.431Z,33.67
2017-10-19T05:35:27.915Z,29.73
2017-10-19T05:37:55.388Z,27.97
2017-10-19T05:40:22.914Z,48.03
2017-10-19T05:42:51.156Z,34.90
2017-10-19T05:45:18.648Z,54.37
2017-10-19T05:47:46.912Z,44.10
2017-10-19T05:50:15.792Z,42.67
2017-10-19T05:52:43.278Z,50.97
2017-10-19T05:55:11.540Z,37.83
2017-10-19T05:57:39.112Z,47.60
2017-10-19T06:00:07.386Z,43.17
2017-10-19T06:02:35.644Z,47.47
2017-10-19T06:05:03.126Z,47.97
2017-10-19T06:07:31.398Z,51.27
2017-10-19T06:09:59.675Z,44.07
2017-10-19T06:12:27.923Z,44.13
2017-10-19T06:14:55.503Z,39.40
2017-10-19T06:17:34.917Z,55.67
2017-10-19T06:20:02.399Z,44.33
2017-10-19T06:22:35.009Z,48.63
2017-10-19T06:25:02.855Z,50.23
2017-10-19T06:27:31.094Z,34.00
2017-10-19T06:29:58.579Z,41.93
2017-10-19T06:32:26.835Z,58.10
2017-10-19T06:34:54.419Z,40.20
2017-10-19T06:37:22.669Z,58.07
2017-10-19T06:39:50.158Z,41.27
2017-10-19T06:42:18.433Z,54.80
2017-10-19T06:44:46.674Z,44.73
2017-10-19T06:47:14.262Z,38.10
2017-10-19T06:49:42.546Z,43.50
2017-10-19T06:52:10.124Z,49.60
2017-10-19T06:54:37.616Z,43.50
2017-10-19T06:57:05.096Z,34.87
2017-10-19T06:59:32.574Z,57.57
2017-10-19T07:02:00.067Z,42.53
2017-10-19T07:04:27.552Z,39.80
2017-10-19T07:06:55.043Z,34.03
2017-10-19T07:09:22.538Z,66.37
2017-10-19T07:11:50.015Z,43.60
2017-10-19T07:14:17.499Z,49.13
2017-10-19T07:16:45.924Z,40.77
2017-10-19T07:19:13.463Z,49.53
2017-10-19T07:21:41.715Z,56.93
2017-10-19T07:24:09.207Z,55.40
2017-10-19T07:26:37.475Z,55.00
2017-10-19T07:29:05.727Z,49.47
2017-10-19T07:31:33.214Z,44.27
2017-10-19T07:34:01.487Z,73.07
2017-10-19T07:36:29.766Z,53.60
2017-10-19T07:38:58.045Z,46.97
2017-10-19T07:41:26.314Z,45.93
2017-10-19T07:43:54.567Z,46.70
2017-10-19T07:46:22.084Z,45.53
2017-10-19T07:48:49.567Z,49.13
2017-10-19T07:51:17.048Z,52.67
2017-10-19T07:53:44.590Z,45.53
2017-10-19T07:56:12.073Z,50.30
2017-10-19T07:58:39.642Z,44.80
2017-10-19T08:01:07.932Z,47.60
2017-10-19T08:03:36.204Z,46.57
2017-10-19T08:06:04.452Z,33.23
2017-10-19T08:08:32.039Z,33.47
2017-10-19T08:11:00.283Z,38.90
2017-10-19T08:13:27.767Z,36.13
2017-10-19T08:15:56.023Z,36.23
2017-10-19T08:18:23.515Z,37.43
2017-10-19T08:20:51.761Z,45.87
2017-10-19T08:23:19.251Z,31.40
2017-10-19T08:25:47.499Z,38.40
2017-10-19T08:28:14.976Z,37.53
2017-10-19T08:30:43.239Z,34.70
2017-10-19T08:33:10.816Z,36.07
2017-10-19T08:35:39.094Z,41.70
2017-10-19T08:38:07.356Z,31.00
2017-10-19T08:40:34.866Z,34.67
2017-10-19T08:43:02.353Z,40.90
2017-10-19T08:45:29.942Z,33.10
2017-10-19T08:47:58.190Z,30.27
2017-10-19T08:50:25.676Z,30.10
2017-10-19T08:52:53.960Z,28.67
2017-10-19T08:55:22.208Z,32.40
2017-10-19T08:57:49.695Z,29.77
2017-10-19T09:00:17.200Z,29.37
2017-10-19T09:02:44.687Z,30.80
2017-10-19T09:05:12.380Z,30.30
2017-10-19T09:07:40.636Z,31.97
2017-10-19T09:10:08.936Z,39.67
2017-10-19T09:12:36.423Z,42.77
2017-10-19T09:15:03.940Z,37.63
2017-10-19T09:17:32.213Z,37.50
2017-10-19T09:20:00.464Z,37.37
2017-10-19T09:22:28.051Z,34.00
2017-10-19T09:24:56.299Z,31.90
2017-10-19T09:27:23.791Z,34.57
2017-10-19T09:29:52.059Z,36.03
2017-10-19T09:32:20.311Z,35.70
2017-10-19T09:34:47.791Z,31.00
2017-10-19T09:37:16.051Z,30.37
2017-10-19T09:39:43.538Z,33.70
2017-10-19T09:42:11.040Z,32.30
2017-10-19T09:44:38.578Z,30.70
2017-10-19T09:47:06.110Z,28.20
2017-10-19T09:49:34.378Z,33.50
2017-10-19T09:52:02.640Z,25.83
2017-10-19T09:54:30.127Z,27.20
2017-10-19T09:56:58.388Z,30.27
2017-10-19T09:59:26.656Z,28.90
2017-10-19T10:01:54.152Z,28.97
2017-10-19T10:04:21.696Z,27.90
2017-10-19T10:06:50.072Z,28.30
2017-10-19T10:09:17.923Z,27.57
2017-10-19T10:11:45.416Z,29.50
2017-10-19T10:14:12.915Z,28.67
2017-10-19T10:16:40.513Z,27.77
2017-10-19T10:19:08.767Z,25.53
2017-10-19T10:21:36.256Z,28.17
2017-10-19T10:24:04.516Z,27.70
2017-10-19T10:26:32.779Z,27.17
2017-10-19T10:29:00.301Z,27.62
2017-10-19T10:31:27.789Z,29.23
2017-10-19T10:33:56.046Z,31.33
2017-10-19T10:36:23.571Z,27.50
2017-10-19T10:38:51.067Z,28.23
2017-10-19T10:41:18.565Z,32.93
2017-10-19T10:43:46.838Z,29.17
2017-10-19T10:46:15.087Z,28.80
2017-10-19T10:48:42.576Z,26.20
2017-10-19T10:51:10.888Z,29.07
2017-10-19T10:53:38.368Z,28.13
2017-10-19T10:56:05.868Z,25.33
2017-10-19T10:58:34.130Z,26.60
2017-10-19T11:01:01.628Z,30.07
2017-10-19T11:03:29.172Z,27.47
2017-10-19T11:05:57.440Z,26.83
2017-10-19T11:08:25.811Z,27.70
2017-10-19T11:10:53.299Z,28.10
2017-10-19T11:13:20.815Z,29.23
2017-10-19T11:15:49.600Z,28.13
2017-10-19T11:18:17.087Z,29.47
2017-10-19T11:20:45.361Z,30.70
2017-10-19T11:23:13.640Z,28.67
2017-10-19T11:25:41.890Z,27.83
2017-10-19T11:28:09.395Z,28.77
2017-10-19T11:30:36.923Z,30.97
2017-10-19T11:33:05.192Z,32.33
2017-10-19T11:35:32.763Z,34.83
2017-10-19T11:38:01.012Z,28.87
2017-10-19T11:40:28.599Z,30.10
2017-10-19T11:42:56.868Z,32.50
2017-10-19T11:45:25.859Z,30.13
2017-10-19T11:47:53.439Z,32.80
2017-10-19T11:50:21.699Z,31.90
2017-10-19T11:52:50.064Z,34.10
2017-10-19T11:55:17.683Z,32.40
2017-10-19T11:57:45.184Z,35.47
2017-10-19T12:00:12.668Z,37.60
2017-10-19T12:02:40.916Z,33.10
2017-10-19T12:05:08.651Z,37.00
2017-10-19T12:07:36.134Z,32.17
2017-10-19T12:10:03.725Z,35.13
2017-10-19T12:12:31.988Z,33.83
2017-10-19T12:14:59.562Z,38.47
2017-10-19T12:17:27.812Z,36.57
2017-10-19T12:19:56.828Z,35.77
2017-10-19T12:22:25.120Z,36.47
2017-10-19T12:24:52.620Z,38.23
2017-10-19T12:27:20.260Z,37.93
2017-10-19T12:29:47.749Z,39.90
2017-10-19T12:32:15.248Z,37.80
2017-10-19T12:34:43.523Z,39.63
2017-10-19T12:37:11.768Z,40.27
2017-10-19T12:39:39.247Z,42.90
2017-10-19T12:42:06.745Z,41.63
2017-10-19T12:44:34.223Z,42.47
2017-10-19T12:47:01.713Z,44.83
2017-10-19T12:49:29.210Z,37.00
2017-10-19T12:51:56.693Z,42.53
2017-10-19T12:54:24.189Z,42.03
2017-10-19T12:56:53.299Z,37.13
2017-10-19T12:59:21.553Z,41.10
2017-10-19T13:01:49.035Z,48.20
2017-10-19T13:04:17.312Z,44.60
2017-10-19T13:06:45.560Z,38.73
2017-10-19T13:09:13.146Z,39.07
2017-10-19T13:11:41.402Z,42.10
2017-10-19T13:14:08.992Z,41.37
2017-10-19T13:16:37.246Z,37.63
2017-10-19T13:19:06.252Z,39.33
2017-10-19T13:21:33.731Z,45.07
2017-10-19T13:24:01.220Z,46.73
2017-10-19T13:26:28.711Z,49.50
2017-10-19T13:28:56.291Z,39.27
2017-10-19T13:31:24.544Z,46.20
2017-10-19T13:33:52.036Z,42.13
2017-10-19T13:36:21.224Z,38.47
2017-10-19T13:38:49.491Z,42.50
2017-10-19T13:41:16.995Z,38.90
2017-10-19T13:43:44.482Z,38.90
2017-10-19T13:46:11.978Z,38.50
2017-10-19T13:48:40.259Z,42.87
2017-10-19T13:51:08.526Z,43.70
2017-10-19T13:53:36.803Z,47.00
2017-10-19T13:56:05.087Z,45.20
2017-10-19T13:58:33.339Z,43.50
2017-10-19T14:01:00.955Z,40.10
2017-10-19T14:03:28.450Z,42.70
2017-10-19T14:05:55.937Z,42.17
2017-10-19T14:08:24.189Z,42.63
2017-10-19T14:10:53.212Z,36.10
2017-10-19T14:13:22.146Z,39.53
2017-10-19T14:15:49.628Z,39.23
2017-10-19T14:18:17.132Z,40.70
2017-10-19T14:20:44.676Z,38.10
2017-10-19T14:23:12.935Z,39.00
2017-10-19T14:25:40.427Z,44.80
2017-10-19T14:28:07.909Z,43.67
2017-10-19T14:30:35.392Z,43.83
2017-10-19T14:33:02.957Z,46.90
2017-10-19T14:35:30.436Z,49.87
2017-10-19T14:37:58.684Z,47.90
2017-10-19T14:40:26.183Z,47.37
2017-10-19T14:42:54.436Z,45.37
2017-10-19T14:45:21.916Z,51.23
2017-10-19T14:47:50.179Z,49.80
2017-10-19T14:50:17.663Z,49.50
2017-10-19T14:52:45.153Z,49.10
2017-10-19T14:55:12.659Z,54.60
2017-10-19T14:57:40.938Z,46.93
2017-10-19T15:00:09.197Z,52.07
2017-10-19T15:02:36.694Z,50.07
2017-10-19T15:05:04.235Z,50.70
2017-10-19T15:07:32.492Z,58.43
2017-10-19T15:09:59.992Z,50.40
2017-10-19T15:12:27.528Z,53.27
2017-10-19T15:14:55.808Z,56.40
2017-10-19T15:17:24.089Z,59.53
2017-10-19T15:19:53.160Z,57.27
2017-10-19T15:22:22.356Z,58.57
2017-10-19T15:24:50.618Z,55.17
2017-10-19T15:27:18.211Z,56.80
2017-10-19T15:29:46.460Z,62.50
2017-10-19T15:32:14.728Z,69.17
2017-10-19T15:34:42.211Z,65.53
2017-10-19T15:37:09.700Z,69.67
2017-10-19T15:39:37.249Z,64.20
2017-10-19T15:42:05.523Z,69.57
2017-10-19T15:44:33.774Z,80.50
2017-10-19T15:47:02.060Z,76.27
2017-10-19T15:49:29.544Z,72.23
2017-10-19T15:51:57.083Z,80.77
2017-10-19T15:54:25.368Z,75.97
2017-10-19T15:56:53.722Z,74.87
2017-10-19T15:59:21.217Z,134.07
2017-10-19T16:01:48.722Z,103.63
2017-10-19T16:04:16.207Z,74.40
2017-10-19T16:06:43.698Z,73.33
2017-10-19T16:09:11.235Z,82.33
2017-10-19T16:11:39.487Z,84.33
2017-10-19T16:14:07.076Z,74.23
2017-10-19T16:16:36.021Z,81.83
2017-10-19T16:19:03.503Z,84.37
2017-10-19T16:21:31.082Z,91.27
2017-10-19T16:23:58.657Z,110.30
2017-10-19T16:26:26.169Z,120.97
2017-10-19T16:28:53.647Z,91.73
2017-10-19T16:31:21.140Z,78.37
2017-10-19T16:33:48.625Z,93.90
2017-10-19T16:36:16.120Z,135.97
2017-10-19T16:38:43.703Z,118.90
2017-10-19T16:41:11.960Z,115.13
2017-10-19T16:43:39.448Z,207.60
2017-10-19T16:46:06.948Z,145.73
2017-10-19T16:48:34.451Z,86.70
2017-10-19T16:51:01.927Z,83.50
2017-10-19T16:53:29.427Z,160.00
2017-10-19T16:55:56.918Z,117.73
2017-10-19T16:58:25.225Z,109.63
2017-10-19T17:00:52.727Z,92.83
2017-10-19T17:03:20.221Z,307.53
2017-10-19T17:05:48.493Z,244.23
2017-10-19T17:08:16.751Z,78.63
2017-10-19T17:10:44.246Z,98.13
2017-10-19T17:13:11.741Z,128.90
2017-10-19T17:15:39.238Z,126.03
2017-10-19T17:18:07.488Z,186.20
2017-10-19T17:20:34.978Z,212.87
2017-10-19T17:23:03.241Z,175.77
2017-10-19T17:25:30.733Z,123.50
2017-10-19T17:27:58.216Z,94.57
2017-10-19T17:30:25.758Z,184.57
2017-10-19T17:32:53.252Z,103.80
2017-10-19T17:35:20.761Z,154.87
2017-10-19T17:37:48.308Z,126.10
2017-10-19T17:40:16.564Z,114.20
2017-10-19T17:42:44.053Z,165.67
2017-10-19T17:45:11.624Z,217.23
2017-10-19T17:47:39.112Z,129.87
2017-10-19T17:50:06.704Z,131.30
2017-10-19T17:52:34.203Z,87.83
2017-10-19T17:55:01.686Z,78.07
2017-10-19T17:57:29.239Z,63.43
2017-10-19T17:59:56.919Z,70.33
2017-10-19T18:02:25.325Z,91.90
2017-10-19T18:04:52.899Z,60.93
2017-10-19T18:07:21.154Z,66.87
2017-10-19T18:09:48.644Z,57.93
2017-10-19T18:12:16.941Z,61.80
2017-10-19T18:14:44.433Z,74.97
2017-10-19T18:17:11.920Z,60.93
2017-10-19T18:19:40.203Z,77.70
2017-10-19T18:22:08.486Z,100.07
2017-10-19T18:24:36.747Z,60.77
2017-10-19T18:27:05.013Z,61.97
2017-10-19T18:29:32.532Z,129.27
2017-10-19T18:32:00.025Z,125.10
2017-10-19T18:34:27.520Z,105.70
2017-10-19T18:36:56.744Z,89.63
2017-10-19T18:39:24.239Z,58.97
2017-10-19T18:41:51.838Z,55.00
2017-10-19T18:44:19.341Z,85.10
2017-10-19T18:46:46.976Z,100.40
2017-10-19T18:49:14.509Z,79.50
2017-10-19T18:51:42.781Z,109.23
2017-10-19T18:54:11.094Z,58.17
2017-10-19T18:56:38.637Z,61.43
2017-10-19T18:59:06.160Z,162.57
2017-10-19T19:01:34.413Z,59.30
2017-10-19T19:04:01.913Z,55.92
2017-10-19T19:06:30.175Z,50.37
2017-10-19T19:08:57.656Z,78.47
2017-10-19T19:11:26.830Z,56.33
2017-10-19T19:13:54.315Z,79.73
2017-10-19T19:16:21.863Z,104.23
2017-10-19T19:18:50.189Z,67.87
2017-10-19T19:21:17.683Z,77.77
2017-10-19T19:23:45.936Z,92.60
2017-10-19T19:26:13.421Z,63.63
2017-10-19T19:28:40.993Z,69.30
2017-10-19T19:31:09.248Z,98.53
2017-10-19T19:33:36.831Z,132.67
2017-10-19T19:36:05.096Z,159.90
2017-10-19T19:38:32.593Z,80.87
2017-10-19T19:41:00.083Z,70.23
2017-10-19T19:43:27.608Z,62.03
2017-10-19T19:45:55.089Z,47.00
2017-10-19T19:48:22.604Z,58.77
2017-10-19T19:50:50.860Z,73.37
2017-10-19T19:53:18.349Z,133.73
2017-10-19T19:55:45.860Z,67.40
2017-10-19T19:58:13.356Z,82.53
2017-10-19T20:00:41.608Z,181.83
2017-10-19T20:03:09.093Z,118.13
2017-10-19T20:05:37.474Z,113.63
2017-10-19T20:08:05.026Z,67.60
2017-10-19T20:10:33.279Z,52.83
2017-10-19T20:13:00.796Z,66.00
2017-10-19T20:15:28.284Z,47.47
2017-10-19T20:17:55.767Z,55.80
2017-10-19T20:20:24.078Z,63.23
2017-10-19T20:22:51.559Z,136.80
2017-10-19T20:25:19.032Z,59.07
2017-10-19T20:27:46.528Z,77.80
2017-10-19T20:30:14.031Z,112.67
2017-10-19T20:32:41.512Z,106.40
2017-10-19T20:35:09.018Z,94.87
2017-10-19T20:37:36.563Z,46.27
2017-10-19T20:40:04.809Z,98.97
2017-10-19T20:42:32.318Z,106.77
2017-10-19T20:45:00.091Z,49.60
2017-10-19T20:47:28.704Z,45.53
2017-10-19T20:49:56.196Z,43.43
2017-10-19T20:52:24.439Z,87.93
2017-10-19T20:54:51.928Z,48.53
2017-10-19T20:57:20.182Z,50.27
2017-10-19T20:59:47.667Z,52.23
2017-10-19T21:02:15.912Z,132.77
2017-10-19T21:04:43.407Z,97.97
2017-10-19T21:07:11.648Z,87.43
2017-10-19T21:09:39.132Z,71.23
2017-10-19T21:12:07.393Z,38.53
2017-10-19T21:14:34.878Z,43.87
2017-10-19T21:17:03.120Z,92.50
2017-10-19T21:19:30.618Z,161.37
2017-10-19T21:21:58.947Z,76.37
2017-10-19T21:24:26.436Z,61.70
2017-10-19T21:26:54.703Z,59.80
2017-10-19T21:29:22.196Z,55.23
2017-10-19T21:31:49.675Z,44.63
2017-10-19T21:34:17.171Z,66.27
2017-10-19T21:36:44.651Z,47.50
2017-10-19T21:39:12.897Z,41.93
2017-10-19T21:41:40.522Z,64.57
2017-10-19T21:44:08.006Z,34.53
2017-10-19T21:46:35.490Z,127.43
2017-10-19T21:49:02.979Z,85.87
2017-10-19T21:51:30.473Z,189.03
2017-10-19T21:53:59.073Z,170.47
2017-10-19T21:56:26.568Z,76.07
2017-10-19T21:58:54.814Z,35.10
2017-10-19T22:01:22.331Z,36.50
2017-10-19T22:03:49.824Z,40.40
2017-10-19T22:06:17.307Z,46.87
2017-10-19T22:08:45.554Z,38.67
2017-10-19T22:11:13.056Z,47.60
2017-10-19T22:13:41.308Z,33.27
2017-10-19T22:16:08.800Z,36.22
2017-10-19T22:18:36.306Z,36.07
2017-10-19T22:21:04.555Z,49.53
2017-10-19T22:23:32.036Z,31.40
2017-10-19T22:25:59.527Z,34.47
2017-10-19T22:28:28.699Z,83.00
2017-10-19T22:30:56.220Z,60.13
2017-10-19T22:33:23.715Z,87.23
2017-10-19T22:35:51.194Z,54.40
2017-10-19T22:38:18.674Z,89.00
2017-10-19T22:40:46.936Z,64.27
2017-10-19T22:43:15.181Z,93.30
2017-10-19T22:45:42.666Z,46.55
2017-10-19T22:48:10.170Z,68.83
2017-10-19T22:50:37.651Z,38.57
2017-10-19T22:53:05.129Z,86.17
2017-10-19T22:55:32.624Z,80.50
2017-10-19T22:58:00.106Z,85.73
2017-10-19T23:00:27.588Z,72.27
2017-10-19T23:02:55.084Z,39.67
2017-10-19T23:05:23.324Z,48.70
2017-10-19T23:07:50.795Z,52.20
2017-10-19T23:10:18.284Z,43.53
2017-10-19T23:12:45.768Z,34.60
2017-10-19T23:15:13.255Z,41.80
2017-10-19T23:17:40.835Z,34.80
2017-10-19T23:20:08.363Z,43.67
2017-10-19T23:22:35.847Z,44.93
2017-10-19T23:25:03.339Z,55.77
2017-10-19T23:27:30.819Z,99.30
2017-10-19T23:29:58.299Z,62.60
2017-10-19T23:32:25.787Z,63.40
2017-10-19T23:34:53.263Z,86.90
2017-10-19T23:37:21.508Z,82.50
2017-10-19T23:39:48.991Z,40.40
2017-10-19T23:42:16.474Z,33.42
2017-10-19T23:44:43.960Z,60.17
2017-10-19T23:47:11.448Z,53.87
2017-10-19T23:49:38.928Z,36.60
2017-10-19T23:52:07.170Z,40.53
2017-10-19T23:54:34.668Z,56.97
2017-10-19T23:57:02.910Z,40.70
2017-10-19T23:59:30.388Z,36.27
